CDT,Max TemperatureF,Mean TemperatureF,Min TemperatureF,Max Dew PointF,MeanDew PointF,Min DewpointF,Max Humidity, Mean Humidity, Min Humidity, Max Sea Level PressureIn, Mean Sea Level PressureIn, Min Sea Level PressureIn, Max VisibilityMiles, Mean VisibilityMiles, Min VisibilityMiles, Max Wind SpeedMPH, Mean Wind SpeedMPH, Max Gust SpeedMPH,PrecipitationIn, CloudCover, Events, WindDirDegrees
2012-9-1,95,79,63,66,62,59,93,63,32,30.06,29.98,29.92,10,10,9,12,5,23,0.00,0,,152
2012-9-2,101,84,67,66,64,59,93,60,26,29.98,29.88,29.80,10,10,10,17,9,23,0.00,0,,174
2012-9-3,85,75,65,68,66,64,93,74,55,29.91,29.86,29.84,10,10,10,16,6,20,0.01,0,,107
2012-9-4,103,84,64,69,58,44,93,54,15,29.87,29.80,29.68,10,10,9,29,10,35,0.00,0,,199
2012-9-5,87,72,56,59,50,37,78,49,19,29.97,29.89,29.72,10,10,10,22,10,28,0.00,0,,350
2012-9-6,94,73,51,61,50,42,77,53,28,30.02,29.89,29.73,10,10,1,25,12,31,0.00,0,,178
2012-9-7,77,64,50,51,47,41,77,53,29,30.19,30.04,29.82,10,10,10,25,13,31,0.00,2,Thunderstorm,345
2012-9-8,88,66,44,45,39,33,83,49,15,30.24,30.14,30.02,10,10,10,24,10,30,0.00,0,,304
2012-9-9,79,60,41,44,38,33,76,48,19,30.27,30.18,30.10,10,10,10,12,5,15,0.00,0,,67
2012-9-10,93,74,54,47,44,39,72,44,16,30.09,29.95,29.80,10,10,10,31,18,40,0.00,0,,184
2012-9-11,97,83,69,48,43,39,36,26,16,29.83,29.79,29.74,10,10,10,28,18,36,0.00,0,,189
2012-9-12,77,65,53,54,46,30,100,62,23,30.33,30.09,29.79,10,9,3,37,16,48,0.46,4,Rain-Thunderstorm,29
2012-9-13,71,61,50,52,46,39,100,66,31,30.46,30.40,30.33,10,9,7,10,5,13,0.00,0,,289
2012-9-14,84,66,48,45,40,31,80,49,18,30.39,30.32,30.24,10,10,10,18,10,23,0.00,0,,220
2012-9-15,82,65,47,58,41,33,90,54,18,30.25,30.17,30.06,10,10,10,15,8,20,0.00,0,,189
2012-9-16,81,70,59,61,56,49,100,67,33,30.08,29.98,29.88,10,10,9,17,11,22,0.00,3,,193
2012-9-17,72,59,46,56,45,32,100,62,24,30.12,30.00,29.87,10,10,10,28,11,35,T,3,,1
2012-9-18,79,61,42,47,39,32,82,53,23,30.13,30.03,29.89,10,10,10,17,6,22,0.00,2,,200
2012-9-19,91,70,49,47,39,28,77,46,15,30.03,29.90,29.83,10,10,10,28,10,33,0.00,0,,300
2012-9-20,78,61,43,40,35,31,76,47,18,30.11,30.02,29.92,10,10,10,12,5,15,0.00,0,,219
2012-9-21,79,66,52,41,36,29,68,44,19,30.00,29.94,29.87,10,10,10,29,12,36,0.00,0,,302
2012-9-22,68,54,40,38,30,25,70,45,20,30.33,30.23,30.01,10,10,10,16,7,22,0.00,0,,20
2012-9-23,73,54,34,35,30,24,75,48,20,30.34,30.26,30.17,10,10,10,16,6,23,0.00,0,,160
2012-9-24,75,61,47,50,43,35,66,53,40,30.15,29.98,29.84,10,10,10,14,5,17,0.00,0,,144
2012-9-25,84,67,49,49,45,40,86,55,23,29.93,29.87,29.83,10,10,10,12,4,20,0.00,0,,35
2012-9-26,79,63,46,43,37,34,71,46,21,30.17,30.05,29.88,10,10,10,14,6,17,0.00,0,,64
2012-9-27,80,60,40,37,34,32,79,49,19,30.22,30.18,30.12,10,9,4,10,3,21,0.00,0,,78
2012-9-28,80,62,43,43,34,31,70,43,16,30.20,30.14,30.09,10,10,7,12,3,14,0.00,0,,142
2012-9-29,79,61,43,48,39,34,76,48,20,30.19,30.12,30.04,10,10,10,12,3,16,0.00,0,,166
2012-9-30,81,63,44,49,39,34,76,47,18,30.05,29.99,29.91,10,10,10,13,4,20,0.00,0,,201